»·PEaware :: N20957 KSBD-KPRC

N20957 :: KSBD-KPRC

FLIGHT INFORMATION

Flight Status: Arrived
Operator: Privately registered:
United States
More flights under this callsign
Pilot: Charles P. (32095)
Aircraft: CESSNA 172 SKYHAWK
(C172)
More flights by this aircraft type
Origin: KSBD San Bernardino Intl
United States
Destination: KPRC Love
United States
More flights between these airports :: More routes between these airports
Route:
File this flight plan on PilotEdge
Remarks: N / A
Altitude:
(Current/Filed)
7,500ft
Speed:
(Current/Filed)
124kts
Departed: 26-Feb-21 03:57 PM
Arrived: 26-Feb-21 06:06 PM
Distance/Time
Traveled:
6736nm/2:09
Distance/Time
To Go:
Arrived

Flight Plot

Page will automatically refresh every two minutes.

Flight plan parsing failed; only flown route is shown


Map Options




Map Legend


Flown Route
Filed Route
Departure Airport
Arrival Airport
Navaid (VOR, NDB)
Fix

Horizontal Profiles

Position Reports

Time Latitude Longitude Heading Altitude Ground
Speed
26-Feb-21 15:18 34.101143 -117.227733 15 1145ft 0kts
26-Feb-21 15:19 34.101143 -117.227733 15 1145ft 0kts
26-Feb-21 15:20 34.101143 -117.227733 15 1145ft 0kts
26-Feb-21 15:21 34.101143 -117.227733 15 1145ft 0kts
26-Feb-21 15:22 34.101143 -117.227733 15 1145ft 0kts
26-Feb-21 15:23 34.101143 -117.227733 15 1145ft 0kts
26-Feb-21 15:24 34.101143 -117.227733 15 1145ft 0kts
26-Feb-21 15:25 34.101143 -117.227733 15 1145ft 0kts
26-Feb-21 15:27 34.101143 -117.227733 15 1145ft 0kts
26-Feb-21 15:28 34.101143 -117.227733 15 1145ft 0kts
26-Feb-21 15:29 34.101143 -117.227733 15 1145ft 0kts
26-Feb-21 15:30 34.101143 -117.227733 15 1145ft 0kts
26-Feb-21 15:31 34.101143 -117.227733 15 1145ft 0kts
26-Feb-21 15:32 34.101143 -117.227733 15 1145ft 0kts
26-Feb-21 15:33 34.101143 -117.227733 15 1145ft 0kts
26-Feb-21 15:34 34.101143 -117.227733 15 1145ft 0kts
26-Feb-21 15:35 34.101143 -117.227733 15 1145ft 0kts
26-Feb-21 15:36 34.101143 -117.227733 15 1145ft 0kts
26-Feb-21 15:37 34.101143 -117.227733 15 1145ft 0kts
26-Feb-21 15:38 34.101143 -117.227733 15 1145ft 0kts
26-Feb-21 15:39 34.101143 -117.227733 15 1145ft 0kts
26-Feb-21 15:40 34.101143 -117.227733 15 1145ft 0kts
26-Feb-21 15:41 34.101143 -117.227733 15 1145ft 0kts
26-Feb-21 15:42 34.101143 -117.227733 15 1145ft 0kts
26-Feb-21 15:43 34.101143 -117.227733 15 1145ft 0kts
26-Feb-21 15:44 34.101143 -117.227733 15 1145ft 0kts
26-Feb-21 15:45 34.100598 -117.227788 141 1144ft 6kts
26-Feb-21 15:46 34.099192 -117.228214 250 1142ft 8kts
26-Feb-21 15:47 34.098122 -117.231848 250 1137ft 12kts
26-Feb-21 15:48 34.096637 -117.236843 249 1123ft 19kts
26-Feb-21 15:49 34.094807 -117.243038 249 1102ft 18kts
26-Feb-21 15:50 34.093351 -117.247972 250 1096ft 13kts
26-Feb-21 15:51 34.091671 -117.250866 163 1086ft 7kts
26-Feb-21 15:51 34.091536 -117.250799 157 1086ft 0kts
26-Feb-21 15:52 34.091536 -117.250799 157 1086ft 0kts
26-Feb-21 15:53 34.091536 -117.250799 157 1086ft 0kts
26-Feb-21 15:55 34.091051 -117.250258 126 1087ft 9kts
26-Feb-21 15:56 34.090975 -117.249667 71 1088ft 0kts
26-Feb-21 15:56 34.093653 -117.240573 71 1206ft 74kts
26-Feb-21 15:57 34.102216 -117.214975 64 1775ft 94kts
26-Feb-21 15:58 34.121727 -117.192345 31 2273ft 104kts
26-Feb-21 15:59 34.125113 -117.161835 108 2768ft 109kts
26-Feb-21 16:00 34.114366 -117.126782 109 3272ft 113kts
26-Feb-21 16:01 34.115128 -117.089128 76 3732ft 112kts
26-Feb-21 16:02 34.120059 -117.052519 77 4484ft 104kts
26-Feb-21 16:03 34.129499 -117.025864 15 5286ft 79kts
26-Feb-21 16:04 34.152167 -117.017663 29 5870ft 88kts
26-Feb-21 16:05 34.166211 -116.991580 55 6387ft 95kts
26-Feb-21 16:06 34.172351 -116.962064 73 6847ft 86kts
26-Feb-21 16:07 34.174675 -116.934472 74 7399ft 83kts
26-Feb-21 16:08 34.176990 -116.903380 74 7996ft 103kts
26-Feb-21 16:10 34.172762 -116.860186 92 8536ft 114kts
26-Feb-21 16:10 34.166175 -116.829253 93 8949ft 113kts
26-Feb-21 16:11 34.155672 -116.792926 101 9463ft 116kts
26-Feb-21 16:12 34.159684 -116.758041 70 9561ft 103kts
26-Feb-21 16:13 34.163911 -116.723965 69 9532ft 96kts
26-Feb-21 16:14 34.169061 -116.685985 71 9669ft 128kts
26-Feb-21 16:15 34.174628 -116.643137 70 9597ft 119kts
26-Feb-21 16:16 34.179541 -116.606423 69 9614ft 109kts
26-Feb-21 16:17 34.184415 -116.568947 69 9641ft 115kts
26-Feb-21 16:18 34.189521 -116.529944 70 9621ft 117kts
26-Feb-21 16:19 34.194530 -116.491506 69 9631ft 115kts
26-Feb-21 16:20 34.199486 -116.453362 69 9603ft 111kts
26-Feb-21 16:21 34.204481 -116.414786 70 9566ft 119kts
26-Feb-21 16:22 34.209602 -116.375574 69 9555ft 117kts
26-Feb-21 16:23 34.214453 -116.337717 69 9558ft 111kts
26-Feb-21 16:24 34.219364 -116.299614 69 9560ft 116kts
26-Feb-21 16:25 34.224404 -116.260532 70 9558ft 119kts
26-Feb-21 16:26 34.229409 -116.221509 70 9556ft 116kts
26-Feb-21 16:27 34.234339 -116.182897 70 9563ft 116kts
26-Feb-21 16:28 34.239332 -116.143558 70 9555ft 118kts
26-Feb-21 16:29 34.244301 -116.104579 70 9556ft 116kts
26-Feb-21 16:30 34.249215 -116.065831 70 9555ft 116kts
26-Feb-21 16:31 34.254120 -116.027322 70 9562ft 117kts
26-Feb-21 16:32 34.259026 -115.988199 70 9555ft 118kts
26-Feb-21 16:33 34.263928 -115.949187 70 9556ft 116kts
26-Feb-21 16:34 34.268773 -115.910557 70 9558ft 116kts
26-Feb-21 16:35 34.273602 -115.871958 70 9558ft 115kts
26-Feb-21 16:36 34.278346 -115.833805 70 9548ft 112kts
26-Feb-21 16:37 34.283053 -115.796675 71 9542ft 118kts
26-Feb-21 16:38 34.287852 -115.757376 70 9590ft 114kts
26-Feb-21 16:39 34.292593 -115.719260 71 9642ft 117kts
26-Feb-21 16:40 34.297460 -115.679868 71 9642ft 119kts
26-Feb-21 16:41 34.302363 -115.639982 71 9637ft 119kts
26-Feb-21 16:42 34.307279 -115.600033 71 9636ft 120kts
26-Feb-21 16:43 34.312183 -115.560049 71 9636ft 120kts
26-Feb-21 16:44 34.317090 -115.519777 71 9632ft 120kts
26-Feb-21 16:45 34.321986 -115.479668 71 9632ft 120kts
26-Feb-21 16:46 34.326836 -115.439688 71 9628ft 119kts
26-Feb-21 16:47 34.331657 -115.399949 71 9629ft 119kts
26-Feb-21 16:48 34.336443 -115.360290 71 9629ft 119kts
26-Feb-21 16:49 34.341248 -115.320514 71 9619ft 118kts
26-Feb-21 16:50 34.345992 -115.281094 71 9630ft 119kts
26-Feb-21 16:51 34.350709 -115.241459 71 9623ft 118kts
26-Feb-21 16:52 34.355473 -115.201861 71 9651ft 122kts
26-Feb-21 16:53 34.360452 -115.159798 72 9649ft 130kts
26-Feb-21 16:54 34.365456 -115.117617 71 9607ft 121kts
26-Feb-21 16:55 34.370186 -115.077934 71 9621ft 117kts
26-Feb-21 16:56 34.374818 -115.038640 71 9625ft 118kts
26-Feb-21 16:57 34.379453 -114.999203 70 9625ft 118kts
26-Feb-21 16:58 34.384152 -114.959202 70 9624ft 120kts
26-Feb-21 16:59 34.388854 -114.919033 70 9624ft 120kts
26-Feb-21 17:00 34.393671 -114.878052 71 9510ft 128kts
26-Feb-21 17:01 34.398575 -114.835716 71 9442ft 125kts
26-Feb-21 17:02 34.403366 -114.794565 71 9442ft 125kts
26-Feb-21 17:03 34.408081 -114.753420 70 9431ft 119kts
26-Feb-21 17:04 34.412669 -114.713786 70 9449ft 120kts
26-Feb-21 17:05 34.417279 -114.673691 70 9446ft 120kts
26-Feb-21 17:06 34.421856 -114.633756 70 9449ft 120kts
26-Feb-21 17:07 34.426455 -114.593657 70 9442ft 120kts
26-Feb-21 17:08 34.431016 -114.553527 70 9436ft 119kts
26-Feb-21 17:09 34.435506 -114.514081 69 9440ft 118kts
26-Feb-21 17:10 34.440020 -114.474154 70 9443ft 121kts
26-Feb-21 17:11 34.444593 -114.433635 69 9436ft 121kts
26-Feb-21 17:12 34.449130 -114.393364 69 9439ft 121kts
26-Feb-21 17:13 34.453675 -114.352892 69 9433ft 119kts
26-Feb-21 17:14 34.458128 -114.313157 69 9436ft 118kts
26-Feb-21 17:15 34.462550 -114.273546 69 9440ft 118kts
26-Feb-21 17:16 34.466969 -114.233806 69 9440ft 118kts
26-Feb-21 17:17 34.471353 -114.194235 69 9439ft 118kts
26-Feb-21 17:18 34.475724 -114.154717 69 9432ft 117kts
26-Feb-21 17:19 34.480045 -114.115695 69 9439ft 118kts
26-Feb-21 17:20 34.484405 -114.076045 69 9440ft 118kts
26-Feb-21 17:21 34.488703 -114.036980 68 9429ft 114kts
26-Feb-21 17:22 34.492987 -113.998151 69 9456ft 122kts
26-Feb-21 17:23 34.497326 -113.957619 69 9426ft 120kts
26-Feb-21 17:24 34.501409 -113.917368 70 9422ft 119kts
26-Feb-21 17:25 34.506374 -113.877812 65 9439ft 116kts
26-Feb-21 17:26 34.510142 -113.837904 68 9430ft 118kts
26-Feb-21 17:27 34.514582 -113.797853 69 9434ft 120kts
26-Feb-21 17:28 34.518834 -113.758298 69 9413ft 115kts
26-Feb-21 17:29 34.522903 -113.721024 67 9604ft 112kts
26-Feb-21 17:30 34.526929 -113.682509 69 9617ft 116kts
26-Feb-21 17:31 34.531088 -113.643243 69 9623ft 118kts
26-Feb-21 17:32 34.535341 -113.603205 69 9617ft 119kts
26-Feb-21 17:33 34.539553 -113.563545 69 9628ft 119kts
26-Feb-21 17:34 34.543847 -113.522917 69 9644ft 125kts
26-Feb-21 17:35 34.548276 -113.480850 70 9580ft 121kts
26-Feb-21 17:36 34.552424 -113.441180 68 9631ft 118kts
26-Feb-21 17:37 34.556559 -113.401722 68 9593ft 114kts
26-Feb-21 17:38 34.560477 -113.363099 68 9614ft 114kts
26-Feb-21 17:39 34.564666 -113.322916 70 9640ft 124kts
26-Feb-21 17:40 34.568995 -113.281120 70 9636ft 126kts
26-Feb-21 17:41 34.573434 -113.237936 70 9636ft 130kts
26-Feb-21 17:42 34.577829 -113.195452 70 9619ft 123kts
26-Feb-21 17:43 34.582198 -113.152571 71 9185ft 136kts
26-Feb-21 17:44 34.586860 -113.106636 72 8706ft 139kts
26-Feb-21 17:45 34.591496 -113.060968 72 8135ft 133kts
26-Feb-21 17:46 34.595977 -113.016697 72 7696ft 128kts
26-Feb-21 17:47 34.600121 -112.975668 72 7678ft 125kts
26-Feb-21 17:48 34.604316 -112.933356 73 7660ft 125kts
26-Feb-21 17:49 34.608584 -112.890838 73 7664ft 129kts
26-Feb-21 17:50 34.612757 -112.849310 73 7654ft 123kts
26-Feb-21 17:51 34.616769 -112.808287 73 7654ft 122kts
26-Feb-21 17:52 34.620909 -112.767061 75 7544ft 126kts
26-Feb-21 17:53 34.624979 -112.725575 73 7507ft 123kts
26-Feb-21 17:54 34.629850 -112.684368 48 7490ft 114kts
26-Feb-21 17:55 34.649846 -112.655145 43 7507ft 115kts
26-Feb-21 17:56 34.669733 -112.624621 43 7514ft 117kts
26-Feb-21 17:57 34.677922 -112.588984 121 7501ft 141kts
26-Feb-21 17:58 34.654823 -112.551705 118 7490ft 124kts
26-Feb-21 17:59 34.639458 -112.514841 77 7151ft 118kts
26-Feb-21 18:00 34.646912 -112.477211 62 6635ft 112kts
26-Feb-21 18:01 34.669408 -112.453796 29 6081ft 100kts
26-Feb-21 18:03 34.689335 -112.435415 77 5752ft 83kts
26-Feb-21 18:04 34.683097 -112.409734 116 5575ft 77kts
26-Feb-21 18:05 34.667668 -112.405538 218 5315ft 73kts
26-Feb-21 18:06 34.657046 -112.416796 221 4990ft 19kts
26-Feb-21 18:07 34.653984 -112.418886 124 5002ft 10kts
26-Feb-21 18:08 34.653801 -112.418666 154 5002ft 0kts
26-Feb-21 18:09 34.653801 -112.418666 154 5002ft 0kts
26-Feb-21 18:10 34.652887 -112.419427 221 5008ft 14kts
26-Feb-21 18:11 34.650356 -112.422121 221 5021ft 11kts
26-Feb-21 18:12 34.647597 -112.425046 220 5023ft 10kts
26-Feb-21 18:13 34.646752 -112.424932 214 5025ft 0kts
26-Feb-21 18:14 34.646751 -112.424933 212 5025ft 0kts
26-Feb-21 18:15 34.646713 -112.424960 218 5025ft 0kts
26-Feb-21 18:16 34.646713 -112.424960 218 5025ft 0kts
26-Feb-21 18:17 34.646713 -112.424960 218 5025ft 0kts
26-Feb-21 18:18 34.646713 -112.424960 218 5025ft 0kts
26-Feb-21 18:19 34.646713 -112.424960 218 5025ft 0kts
26-Feb-21 18:20 0.000000 0.000000 0 0ft 0kts

Navigation Log

Ident Type
Flight plan parsing failed, navigation log unavailable